Time;durP1;ratioP1;P1;durP2;ratioP2;P2;SDS_P1;SDS_P2;PMS_P1;PMS_P2;Temp;Humidity;BMP_temperature;BMP_pressure;BME280_temperature;BME280_humidity;BME280_pressure;Samples;Min_cycle;Max_cycle;Signal;HPM_P1;HPM_P2
2022/01/31 00:00:08;;;;;;;36.50;4.47;;;;;;;0.38;87.91;96533.97;10493480;28;20194;-61
2022/01/31 00:05:13;;;;;;;25.97;4.13;;;;;;;0.40;87.82;96536.44;10496203;28;20215;-61
2022/01/31 00:10:16;;;;;;;25.67;4.43;;;;;;;0.39;87.72;96521.94;10501202;28;20201;-61
2022/01/31 00:15:16;;;;;;;22.23;3.63;;;;;;;0.34;88.38;96520.47;10526183;22;20325;-60
2022/01/31 00:20:17;;;;;;;28.53;4.67;;;;;;;0.37;88.63;96519.47;10542522;28;20199;-61
2022/01/31 00:25:17;;;;;;;31.53;5.60;;;;;;;0.47;88.57;96525.66;10524100;28;20319;-62
2022/01/31 00:30:17;;;;;;;32.50;4.80;;;;;;;0.40;88.48;96510.69;10542174;28;20205;-62
2022/01/31 00:35:18;;;;;;;28.17;5.10;;;;;;;0.51;88.36;96500.53;10542135;28;20224;-63
2022/01/31 00:40:19;;;;;;;28.67;4.73;;;;;;;0.53;87.89;96478.88;10541770;28;20246;-62
2022/01/31 00:45:27;;;;;;;31.70;5.33;;;;;;;0.30;88.17;96467.47;10541455;28;20215;-61
2022/01/31 00:50:30;;;;;;;22.23;4.23;;;;;;;0.31;88.99;96466.56;10541350;28;20179;-63
2022/01/31 00:55:30;;;;;;;34.40;5.07;;;;;;;0.26;89.05;96476.34;10523724;28;20229;-62
2022/01/31 01:00:30;;;;;;;27.27;3.83;;;;;;;0.33;88.58;96464.69;10522773;28;20218;-62
2022/01/31 01:05:31;;;;;;;24.80;4.30;;;;;;;0.29;89.02;96439.25;10522559;28;20307;-60
2022/01/31 01:10:32;;;;;;;23.93;4.73;;;;;;;0.42;88.05;96408.38;10540865;28;20279;-61
2022/01/31 01:15:33;;;;;;;25.63;4.97;;;;;;;0.29;88.16;96393.72;10520567;28;20288;-60
2022/01/31 01:20:33;;;;;;;28.63;4.63;;;;;;;0.18;88.05;96391.00;10540384;28;20258;-60
2022/01/31 01:25:35;;;;;;;20.13;4.27;;;;;;;0.25;88.26;96356.19;10521531;28;20218;-61
2022/01/31 01:30:35;;;;;;;30.07;4.70;;;;;;;0.14;88.04;96326.00;10521693;28;20206;-63
2022/01/31 01:35:38;;;;;;;28.40;4.13;;;;;;;0.18;88.54;96339.47;10521519;28;20237;-60
2022/01/31 01:40:40;;;;;;;28.57;4.97;;;;;;;0.26;88.01;96296.03;10539277;28;20193;-59
2022/01/31 01:45:43;;;;;;;26.20;4.47;;;;;;;0.29;88.20;96285.50;10520953;28;20224;-63
2022/01/31 01:50:47;;;;;;;31.10;5.57;;;;;;;0.12;87.64;96255.75;10520519;28;20637;-61
2022/01/31 01:55:50;;;;;;;28.93;5.27;;;;;;;0.15;88.16;96255.53;10520822;28;20232;-61
2022/01/31 02:01:02;;;;;;;35.67;5.23;;;;;;;0.10;88.86;96246.47;10519817;28;20278;-63
2022/01/31 02:06:20;;;;;;;31.00;4.93;;;;;;;0.11;88.44;96242.97;10538525;28;20226;-61
2022/01/31 02:11:21;;;;;;;22.80;3.50;;;;;;;0.07;89.49;96249.25;10520089;28;20718;-61
2022/01/31 02:16:24;;;;;;;26.47;4.27;;;;;;;0.00;89.52;96228.25;10518984;28;20700;-63
2022/01/31 02:21:32;;;;;;;26.07;5.17;;;;;;;-0.01;89.46;96204.22;10520098;28;20187;-65
2022/01/31 02:26:33;;;;;;;24.97;4.70;;;;;;;-0.12;89.83;96201.56;10519463;28;20222;-64
2022/01/31 02:31:44;;;;;;;27.73;4.77;;;;;;;-0.13;89.76;96191.38;10520041;28;20189;-64
2022/01/31 02:36:44;;;;;;;27.37;4.97;;;;;;;-0.12;89.87;96186.13;10519589;28;20680;-65
2022/01/31 02:41:46;;;;;;;23.27;4.67;;;;;;;-0.02;90.29;96176.00;10518894;28;20190;-64
2022/01/31 02:46:52;;;;;;;31.03;5.97;;;;;;;-0.20;90.82;96170.34;10518605;28;20715;-62
2022/01/31 02:51:56;;;;;;;31.37;5.47;;;;;;;-0.20;91.05;96152.31;10518498;28;20179;-65
2022/01/31 02:56:56;;;;;;;25.50;4.83;;;;;;;-0.17;91.08;96135.84;10518647;28;20303;-63
2022/01/31 03:01:57;;;;;;;22.17;4.00;;;;;;;-0.21;91.42;96154.09;10517880;28;20193;-64
2022/01/31 03:06:58;;;;;;;30.80;4.50;;;;;;;-0.20;90.99;96135.16;10518123;28;20221;-63
2022/01/31 03:11:59;;;;;;;23.83;4.40;;;;;;;-0.28;92.02;96147.69;10517857;28;20239;-63
2022/01/31 03:17:08;;;;;;;33.27;5.27;;;;;;;-0.19;91.50;96111.03;10517107;28;20279;-65
2022/01/31 03:22:12;;;;;;;27.60;4.13;;;;;;;-0.18;91.61;96091.28;10517745;28;20183;-63
2022/01/31 03:27:12;;;;;;;25.77;4.67;;;;;;;-0.21;91.69;96097.47;10535288;28;20730;-64
2022/01/31 03:32:13;;;;;;;27.20;5.27;;;;;;;-0.23;91.24;96073.59;10517763;28;20732;-64
2022/01/31 03:37:14;;;;;;;24.43;4.70;;;;;;;-0.15;91.79;96062.75;10516737;28;20335;-63
2022/01/31 03:42:18;;;;;;;29.03;4.73;;;;;;;-0.11;92.17;96033.28;10528786;28;20181;-65
2022/01/31 03:47:22;;;;;;;28.30;4.00;;;;;;;-0.22;91.88;96028.06;10530625;28;20759;-65
2022/01/31 03:52:22;;;;;;;35.20;4.77;;;;;;;-0.32;92.24;96025.31;10530124;28;20181;-65
2022/01/31 03:57:24;;;;;;;29.93;5.70;;;;;;;-0.30;92.45;96026.03;10530499;28;20252;-62
2022/01/31 04:02:42;;;;;;;23.43;3.97;;;;;;;-0.22;92.55;96012.63;10530792;28;20295;-65
2022/01/31 04:07:43;;;;;;;18.10;3.83;;;;;;;-0.09;92.15;95986.81;10548859;28;20216;-64
2022/01/31 04:12:43;;;;;;;26.23;4.90;;;;;;;-0.29;92.81;95985.66;10548235;28;20191;-65
2022/01/31 04:17:44;;;;;;;31.33;4.50;;;;;;;-0.30;92.87;95942.88;10548749;28;20304;-65
2022/01/31 04:22:51;;;;;;;42.30;4.70;;;;;;;-0.23;93.03;95936.31;10548750;28;20220;-63
2022/01/31 04:28:00;;;;;;;27.30;4.43;;;;;;;-0.10;92.48;95915.69;10548991;28;20202;-65
2022/01/31 04:33:01;;;;;;;24.47;3.90;;;;;;;-0.17;91.54;95906.75;10549017;28;20183;-65
2022/01/31 04:38:01;;;;;;;25.33;4.80;;;;;;;-0.20;91.99;95885.47;10548220;28;20208;-64
2022/01/31 04:43:02;;;;;;;20.60;4.60;;;;;;;-0.28;91.77;95885.19;10548599;28;20222;-65
2022/01/31 04:48:03;;;;;;;23.63;4.07;;;;;;;-0.27;92.01;95835.38;10548312;28;20228;-65
2022/01/31 04:53:03;;;;;;;25.20;4.57;;;;;;;-0.36;92.26;95846.31;10542573;28;20188;-64
2022/01/31 04:58:04;;;;;;;38.23;5.23;;;;;;;-0.39;92.51;95834.50;10541571;28;20218;-65
2022/01/31 05:03:11;;;;;;;20.80;3.57;;;;;;;-0.30;92.53;95809.03;10540970;28;20214;-63
2022/01/31 05:08:11;;;;;;;21.17;4.63;;;;;;;-0.41;92.79;95792.63;10541524;28;20210;-64
2022/01/31 05:13:13;;;;;;;18.27;4.43;;;;;;;-0.42;92.59;95779.88;10540309;28;20219;-66
2022/01/31 05:18:14;;;;;;;29.37;4.70;;;;;;;-0.47;93.04;95753.66;10540769;28;20634;-63
2022/01/31 05:23:15;;;;;;;26.50;4.10;;;;;;;-0.63;93.66;95753.94;10540599;28;20222;-63
2022/01/31 05:28:15;;;;;;;32.63;5.63;;;;;;;-0.57;93.98;95792.09;10540475;28;20696;-65
2022/01/31 05:33:15;;;;;;;33.83;4.80;;;;;;;-0.49;93.25;95771.78;10540567;28;20191;-64
2022/01/31 05:38:16;;;;;;;29.93;4.17;;;;;;;-0.39;93.24;95753.91;10539634;28;20692;-64
2022/01/31 05:43:19;;;;;;;25.37;4.50;;;;;;;-0.56;93.74;95747.44;10539981;28;20230;-63
2022/01/31 05:48:20;;;;;;;31.33;4.70;;;;;;;-0.56;94.14;95745.66;10539548;28;20234;-63
2022/01/31 05:53:21;;;;;;;32.27;5.80;;;;;;;-0.49;94.20;95737.50;10539368;28;20218;-63
2022/01/31 05:58:22;;;;;;;23.17;4.40;;;;;;;-0.51;94.55;95729.91;10521499;28;20202;-64
2022/01/31 06:03:22;;;;;;;24.33;4.83;;;;;;;-0.50;94.08;95721.25;10538255;28;20248;-65
2022/01/31 06:08:22;;;;;;;27.00;3.80;;;;;;;-0.51;94.37;95699.03;10539017;28;20263;-63
2022/01/31 06:13:23;;;;;;;21.23;5.00;;;;;;;-0.52;94.33;95663.97;10537994;28;20197;-63
2022/01/31 06:18:24;;;;;;;28.40;5.80;;;;;;;-0.67;94.67;95650.50;10547579;22;20243;-61
2022/01/31 06:23:24;;;;;;;21.60;4.50;;;;;;;-0.70;95.43;95637.84;10496020;28;20288;-57
2022/01/31 06:28:24;;;;;;;22.10;4.30;;;;;;;-0.65;94.83;95609.22;10495993;28;20234;-61
2022/01/31 06:33:32;;;;;;;21.90;4.87;;;;;;;-0.63;95.38;95604.78;10494353;28;20191;-61
2022/01/31 06:38:35;;;;;;;29.30;5.27;;;;;;;-0.52;95.52;95593.69;10495616;28;20219;-57
2022/01/31 06:43:35;;;;;;;30.47;5.13;;;;;;;-0.48;95.18;95590.75;10495046;28;20218;-61
2022/01/31 06:48:36;;;;;;;17.53;4.20;;;;;;;-0.33;94.34;95573.34;10495395;28;20697;-59
2022/01/31 06:53:36;;;;;;;20.33;4.30;;;;;;;-0.21;93.17;95551.00;10494910;28;20194;-60
2022/01/31 06:58:36;;;;;;;18.93;4.17;;;;;;;-0.12;92.65;95547.72;10494804;28;20207;-60
2022/01/31 07:03:37;;;;;;;23.20;5.83;;;;;;;-0.05;92.54;95540.31;10494485;28;20390;-57
2022/01/31 07:08:38;;;;;;;26.87;4.50;;;;;;;-0.15;93.02;95523.94;10494619;28;20205;-59
2022/01/31 07:13:39;;;;;;;19.40;3.63;;;;;;;0.03;92.03;95508.81;10493333;28;20222;-60
2022/01/31 07:18:40;;;;;;;27.67;5.50;;;;;;;0.02;91.45;95495.13;10494039;28;20234;-56
2022/01/31 07:24:03;;;;;;;23.13;4.50;;;;;;;0.14;91.67;95481.28;10494104;28;20242;-56
2022/01/31 07:29:03;;;;;;;7.00;2.07;;;;;;;0.17;91.78;95475.09;10494095;28;20311;-56
2022/01/31 07:34:04;;;;;;;12.77;3.23;;;;;;;0.14;93.17;95465.03;10493655;28;20730;-61
2022/01/31 07:39:04;;;;;;;20.37;4.33;;;;;;;0.14;94.23;95460.69;10493698;28;20754;-61
2022/01/31 07:44:05;;;;;;;9.33;2.33;;;;;;;0.06;94.57;95439.06;10493704;28;20365;-58
2022/01/31 07:49:06;;;;;;;15.57;3.63;;;;;;;0.02;94.92;95435.13;10493557;28;20215;-59
2022/01/31 07:54:07;;;;;;;19.53;3.93;;;;;;;0.12;94.70;95429.09;10493729;28;20191;-59
2022/01/31 07:59:08;;;;;;;29.20;4.43;;;;;;;0.06;95.39;95423.59;10493187;28;20215;-61
2022/01/31 08:04:10;;;;;;;23.87;4.80;;;;;;;0.05;95.51;95417.66;10493357;28;20681;-59
2022/01/31 08:09:10;;;;;;;23.50;3.73;;;;;;;0.17;95.97;95397.81;10493144;28;20215;-61
2022/01/31 08:14:11;;;;;;;17.63;3.73;;;;;;;0.17;95.41;95388.34;10492898;28;20567;-60
2022/01/31 08:19:12;;;;;;;15.13;3.33;;;;;;;0.27;94.32;95370.34;10493993;28;20231;-61
2022/01/31 08:24:12;;;;;;;23.27;5.30;;;;;;;0.18;94.96;95376.25;10492690;28;20215;-60
2022/01/31 08:29:21;;;;;;;19.53;4.60;;;;;;;0.19;94.50;95352.16;10500457;28;20290;-59
2022/01/31 08:35:46;;;;;;;21.80;3.40;;;;;;;0.11;94.51;95339.09;10500299;28;20202;-58
2022/01/31 08:39:42;;;;;;;17.73;3.60;;;;;;;0.14;95.02;95349.97;10500326;28;20240;-59
2022/01/31 08:44:43;;;;;;;16.70;3.40;;;;;;;0.11;95.74;95344.25;10499789;28;20222;-60
2022/01/31 08:49:43;;;;;;;17.00;3.90;;;;;;;0.21;95.38;95314.19;10497793;28;20222;-60
2022/01/31 08:54:43;;;;;;;27.97;5.20;;;;;;;0.14;95.09;95295.88;10498308;28;20187;-62
2022/01/31 08:59:44;;;;;;;14.13;3.80;;;;;;;0.26;95.73;95288.06;10497560;28;20596;-61
2022/01/31 09:04:48;;;;;;;22.57;4.90;;;;;;;0.41;94.91;95283.41;10499327;28;20597;-62
2022/01/31 09:09:52;;;;;;;13.60;3.80;;;;;;;0.63;94.77;95278.06;10499250;28;20550;-60
2022/01/31 09:14:53;;;;;;;20.97;4.70;;;;;;;0.59;96.47;95271.53;10498419;28;20195;-62
2022/01/31 09:19:53;;;;;;;20.10;4.90;;;;;;;0.26;99.82;95285.50;10498570;28;20932;-59
2022/01/31 09:24:54;;;;;;;21.37;3.80;;;;;;;0.19;100.00;95285.19;10498214;28;20219;-62
2022/01/31 09:29:54;;;;;;;19.17;4.80;;;;;;;0.13;100.00;95278.00;10498294;28;20228;-62
2022/01/31 09:34:55;;;;;;;19.43;4.23;;;;;;;0.37;100.00;95261.41;10498131;28;20187;-61
2022/01/31 09:40:02;;;;;;;22.07;5.53;;;;;;;0.13;100.00;95259.97;10497198;28;20224;-60
2022/01/31 09:45:10;;;;;;;19.20;6.67;;;;;;;-0.14;100.00;95263.88;10497816;28;20230;-61
2022/01/31 09:50:12;;;;;;;24.37;5.10;;;;;;;-0.29;100.00;95239.41;10497108;28;20219;-58
2022/01/31 09:55:12;;;;;;;20.07;6.13;;;;;;;-0.23;100.00;95228.59;10496855;28;20270;-63
2022/01/31 10:00:13;;;;;;;34.93;6.47;;;;;;;-0.22;100.00;95219.94;10496411;28;20215;-62
2022/01/31 10:05:27;;;;;;;21.57;5.53;;;;;;;-0.38;100.00;95208.34;10489997;28;20827;-62
2022/01/31 10:10:29;;;;;;;28.87;5.80;;;;;;;-0.36;100.00;95209.03;10491549;28;20226;-63
2022/01/31 10:20:49;;;;;;;20.57;6.00;;;;;;;-0.26;100.00;95193.66;10492832;28;20231;-62
2022/01/31 10:25:49;;;;;;;19.10;5.10;;;;;;;-0.18;100.00;95195.59;10491955;28;20313;-59
2022/01/31 10:30:52;;;;;;;15.03;4.27;;;;;;;-0.09;100.00;95191.41;10492520;28;20238;-61
2022/01/31 10:35:53;;;;;;;20.50;5.70;;;;;;;-0.02;100.00;95177.91;10492396;28;20193;-59
2022/01/31 10:50:37;;;;;;;5.40;1.70;;;;;;;-0.06;100.00;95173.97;10486822;28;20203;-62
2022/01/31 10:52:04;;;;;;;10.90;3.17;;;;;;;-0.11;100.00;95167.56;10486610;28;20192;-59
2022/01/31 10:57:21;;;;;;;7.70;3.10;;;;;;;-0.04;100.00;95156.63;10490161;28;20203;-63
2022/01/31 11:02:23;;;;;;;9.37;4.07;;;;;;;-0.14;100.00;95154.97;10491534;28;20191;-63
2022/01/31 11:07:26;;;;;;;14.10;3.00;;;;;;;-0.08;100.00;95154.44;10492662;28;20219;-64
2022/01/31 11:12:27;;;;;;;10.37;2.80;;;;;;;-0.16;100.00;95144.00;10489911;28;20190;-65
2022/01/31 11:17:27;;;;;;;10.70;3.07;;;;;;;-0.09;100.00;95145.09;10455254;28;1000572;-64
2022/01/31 11:22:33;;;;;;;5.63;3.20;;;;;;;-0.16;100.00;95139.66;10473495;28;20213;-65
2022/01/31 11:27:33;;;;;;;13.80;3.57;;;;;;;-0.22;100.00;95132.44;10492297;28;20318;-65
2022/01/31 11:32:34;;;;;;;9.40;3.17;;;;;;;-0.14;100.00;95129.22;10491492;28;20759;-64
2022/01/31 11:37:36;;;;;;;10.30;3.13;;;;;;;-0.07;100.00;95131.16;10473338;28;20220;-61
2022/01/31 11:42:36;;;;;;;9.87;2.90;;;;;;;0.05;100.00;95131.06;10491570;28;20195;-62
2022/01/31 11:47:38;;;;;;;5.83;2.27;;;;;;;0.10;100.00;95128.91;10472757;28;20697;-62
2022/01/31 11:52:59;;;;;;;5.30;2.33;;;;;;;0.16;100.00;95124.03;10492267;28;20187;-62
2022/01/31 11:57:59;;;;;;;2.33;1.60;;;;;;;0.28;100.00;95126.53;10491390;28;20214;-63
2022/01/31 12:03:05;;;;;;;1.70;1.60;;;;;;;0.23;100.00;95111.47;10494731;28;20203;-61
2022/01/31 12:08:08;;;;;;;1.57;1.47;;;;;;;0.18;100.00;95113.59;10495082;28;20269;-62
2022/01/31 12:13:41;;;;;;;1.10;1.10;;;;;;;0.25;100.00;95113.91;10496758;28;20202;-64
2022/01/31 12:18:54;;;;;;;1.37;1.20;;;;;;;0.16;100.00;95112.94;10498310;28;20227;-63
2022/01/31 12:24:09;;;;;;;1.63;1.53;;;;;;;0.16;100.00;95110.34;10497030;28;20723;-62
2022/01/31 12:29:12;;;;;;;3.37;3.07;;;;;;;0.25;100.00;95108.75;10498963;28;20260;-62
2022/01/31 12:34:22;;;;;;;1.20;1.20;;;;;;;0.09;100.00;95099.78;10498307;28;20183;-62
2022/01/31 12:39:28;;;;;;;3.90;2.53;;;;;;;0.30;100.00;95094.50;10498619;28;20229;-61
2022/01/31 12:44:29;;;;;;;2.40;2.20;;;;;;;0.31;100.00;95092.78;10498471;28;20232;-62
2022/01/31 12:49:29;;;;;;;2.63;2.43;;;;;;;0.31;100.00;95103.88;10498000;28;20631;-60
2022/01/31 12:54:30;;;;;;;2.90;2.60;;;;;;;0.28;100.00;95108.50;10496640;28;20194;-62
2022/01/31 12:59:30;;;;;;;3.70;2.40;;;;;;;0.18;100.00;95118.75;10497238;28;20218;-62
2022/01/31 13:04:31;;;;;;;4.83;2.43;;;;;;;0.23;100.00;95115.78;10497289;28;20246;-62
2022/01/31 13:09:34;;;;;;;5.53;2.70;;;;;;;0.43;100.00;95107.16;10497072;28;20210;-61
2022/01/31 13:14:37;;;;;;;6.07;3.00;;;;;;;0.44;100.00;95098.47;10496458;28;20192;-62
2022/01/31 13:19:40;;;;;;;4.03;2.60;;;;;;;0.63;100.00;95107.97;10497175;28;20286;-62
2022/01/31 13:24:47;;;;;;;3.57;3.10;;;;;;;0.62;100.00;95105.53;10495536;28;20223;-62
2022/01/31 13:29:52;;;;;;;4.10;2.70;;;;;;;0.56;100.00;95116.38;10496961;28;20219;-62
2022/01/31 13:34:55;;;;;;;6.13;2.80;;;;;;;0.57;100.00;95112.84;10496947;28;20187;-63
2022/01/31 13:39:57;;;;;;;6.07;2.83;;;;;;;0.49;100.00;95110.94;10496287;28;20211;-63
2022/01/31 13:44:59;;;;;;;2.93;2.73;;;;;;;0.54;100.00;95113.94;10496285;28;20283;-64
2022/01/31 13:50:02;;;;;;;5.97;3.30;;;;;;;0.55;100.00;95117.31;10478631;28;20714;-65
2022/01/31 13:55:03;;;;;;;3.43;2.77;;;;;;;0.53;100.00;95120.03;10494440;28;20199;-65
2022/01/31 14:00:05;;;;;;;5.80;2.50;;;;;;;0.65;100.00;95116.38;10477982;28;20243;-65
2022/01/31 14:05:19;;;;;;;4.47;2.70;;;;;;;0.65;100.00;95121.53;10495069;28;20234;-63
2022/01/31 14:10:24;;;;;;;2.90;2.23;;;;;;;0.52;100.00;95123.56;10494864;28;20272;-63
2022/01/31 14:15:24;;;;;;;3.37;2.50;;;;;;;0.58;100.00;95141.06;10494901;28;20190;-63
2022/01/31 14:20:25;;;;;;;2.47;2.27;;;;;;;0.55;100.00;95132.78;10459534;28;20242;-63
2022/01/31 14:25:25;;;;;;;4.40;2.33;;;;;;;0.58;100.00;95140.25;10452680;28;20649;-63
2022/01/31 14:30:26;;;;;;;3.77;2.60;;;;;;;0.60;100.00;95144.31;10451900;28;20250;-63
2022/01/31 14:35:28;;;;;;;2.87;2.00;;;;;;;0.47;100.00;95139.41;10452899;28;20188;-63
2022/01/31 14:40:54;;;;;;;2.13;1.90;;;;;;;0.28;100.00;95141.97;10453419;28;20262;-63
2022/01/31 14:51:27;;;;;;;2.43;2.23;;;;;;;0.15;100.00;95149.91;10448742;28;20202;-64
2022/01/31 14:56:30;;;;;;;3.00;2.70;;;;;;;0.24;100.00;95150.91;10447168;28;20564;-62
2022/01/31 15:01:31;;;;;;;3.43;3.13;;;;;;;0.16;100.00;95156.72;10447755;28;20210;-62
2022/01/31 15:06:31;;;;;;;4.13;3.03;;;;;;;0.15;100.00;95161.06;10450109;28;20273;-62
2022/01/31 15:11:32;;;;;;;5.37;3.10;;;;;;;0.23;100.00;95175.84;10450961;28;20606;-63
2022/01/31 15:16:33;;;;;;;4.67;3.60;;;;;;;0.43;100.00;95170.72;10449505;28;21576;-62
2022/01/31 15:21:34;;;;;;;3.60;3.30;;;;;;;0.29;100.00;95188.19;10445574;28;20194;-63
2022/01/31 15:26:37;;;;;;;4.67;3.80;;;;;;;0.41;100.00;95190.66;10448491;28;20223;-62
2022/01/31 15:31:40;;;;;;;3.60;3.20;;;;;;;0.43;100.00;95184.44;10447221;28;20196;-63
2022/01/31 15:36:41;;;;;;;3.10;2.83;;;;;;;0.48;100.00;95191.78;10444615;28;20239;-62
2022/01/31 15:41:44;;;;;;;4.33;3.70;;;;;;;0.40;100.00;95194.16;10448155;28;20192;-63
2022/01/31 15:46:44;;;;;;;4.77;3.90;;;;;;;0.44;100.00;95200.69;10445792;28;20309;-63
2022/01/31 15:51:45;;;;;;;5.43;4.30;;;;;;;0.27;100.00;95205.53;10447706;28;20658;-62
2022/01/31 15:56:45;;;;;;;4.13;3.73;;;;;;;0.36;100.00;95203.94;10449756;28;20238;-62
2022/01/31 16:01:46;;;;;;;6.30;4.77;;;;;;;0.39;100.00;95205.44;10429772;28;20196;-61
2022/01/31 16:06:46;;;;;;;7.20;4.80;;;;;;;0.43;100.00;95215.34;10444376;28;20254;-61
2022/01/31 16:11:52;;;;;;;5.00;4.00;;;;;;;0.31;100.00;95217.19;10448493;28;20274;-62
2022/01/31 16:16:52;;;;;;;6.33;5.57;;;;;;;0.20;100.00;95231.94;10453343;28;20720;-62
2022/01/31 16:21:53;;;;;;;23.00;17.17;;;;;;;-0.11;100.00;95231.91;10489104;28;20191;-62
2022/01/31 16:26:54;;;;;;;24.17;16.83;;;;;;;-0.29;100.00;95234.25;10488204;28;20280;-62
2022/01/31 16:31:54;;;;;;;20.10;15.43;;;;;;;-0.42;100.00;95239.59;10489707;28;20189;-62
2022/01/31 16:36:54;;;;;;;38.57;25.70;;;;;;;-0.48;100.00;95240.91;10486687;28;20233;-64
2022/01/31 16:41:55;;;;;;;32.70;21.83;;;;;;;-0.56;100.00;95259.53;10489711;28;20281;-64
2022/01/31 16:46:55;;;;;;;46.43;23.40;;;;;;;-0.59;100.00;95259.78;10491291;28;20241;-63
2022/01/31 16:51:56;;;;;;;39.43;20.30;;;;;;;-0.63;100.00;95255.00;10496698;28;20199;-62
2022/01/31 16:56:56;;;;;;;44.20;25.80;;;;;;;-0.59;100.00;95257.22;10496531;28;20304;-63
2022/01/31 17:01:57;;;;;;;21.73;12.87;;;;;;;-0.63;100.00;95262.72;10495864;28;20187;-63
2022/01/31 17:06:58;;;;;;;28.33;15.00;;;;;;;-0.58;100.00;95269.13;10495622;28;20226;-64
2022/01/31 17:11:58;;;;;;;9.47;6.83;;;;;;;-0.64;100.00;95272.22;10495848;28;20202;-63
2022/01/31 17:16:59;;;;;;;11.57;6.60;;;;;;;-0.68;100.00;95280.28;10495556;28;20227;-65
2022/01/31 17:21:59;;;;;;;7.93;6.30;;;;;;;-0.69;100.00;95299.22;10495904;28;20244;-65
2022/01/31 17:27:00;;;;;;;6.87;5.20;;;;;;;-0.67;100.00;95303.31;10495864;28;20219;-64
2022/01/31 17:32:00;;;;;;;6.97;5.30;;;;;;;-0.65;100.00;95314.28;10495520;28;20191;-65
2022/01/31 17:37:01;;;;;;;5.00;3.63;;;;;;;-0.67;100.00;95328.19;10492740;28;20261;-64
2022/01/31 17:42:06;;;;;;;3.57;2.97;;;;;;;-0.61;100.00;95336.25;10474316;28;20189;-65
2022/01/31 17:47:07;;;;;;;3.50;2.77;;;;;;;-0.72;100.00;95336.28;10491830;28;20211;-65
2022/01/31 17:52:07;;;;;;;141.90;70.37;;;;;;;-0.74;100.00;95348.44;10493234;28;20193;-64
2022/01/31 17:57:08;;;;;;;7.33;6.07;;;;;;;-0.73;100.00;95356.03;10490822;28;20199;-65
2022/01/31 18:02:08;;;;;;;3.67;3.23;;;;;;;-0.75;100.00;95373.34;10490379;28;20300;-65
2022/01/31 18:07:08;;;;;;;7.47;4.63;;;;;;;-0.86;100.00;95386.19;10490905;28;20237;-64
2022/01/31 18:12:09;;;;;;;3.27;2.97;;;;;;;-0.82;100.00;95389.38;10488937;28;20673;-63
2022/01/31 18:17:11;;;;;;;4.47;3.83;;;;;;;-0.83;100.00;95391.09;10492581;28;20287;-64
2022/01/31 18:22:11;;;;;;;14.53;13.03;;;;;;;-0.94;100.00;95406.56;10492636;28;20985;-65
2022/01/31 18:27:11;;;;;;;7.70;5.67;;;;;;;-0.87;100.00;95417.16;10494890;28;20218;-65
2022/01/31 18:32:12;;;;;;;9.03;6.60;;;;;;;-0.92;100.00;95425.25;10491685;28;20268;-65
2022/01/31 18:37:13;;;;;;;10.00;6.40;;;;;;;-0.91;100.00;95437.97;10494638;28;20210;-66
2022/01/31 18:42:13;;;;;;;17.03;7.00;;;;;;;-0.90;100.00;95452.47;10493641;28;20187;-64
2022/01/31 18:47:15;;;;;;;33.93;8.07;;;;;;;-0.84;100.00;95463.22;10493601;28;20222;-64
2022/01/31 18:52:17;;;;;;;32.23;10.40;;;;;;;-0.93;100.00;95477.59;10493638;28;20191;-65
2022/01/31 18:57:17;;;;;;;59.30;10.80;;;;;;;-0.93;100.00;95477.59;10488397;28;20658;-65
2022/01/31 19:02:18;;;;;;;54.63;10.70;;;;;;;-0.92;100.00;95492.06;10492796;28;20230;-65
2022/01/31 19:07:18;;;;;;;55.50;10.33;;;;;;;-0.93;100.00;95498.97;10492174;28;20234;-64
2022/01/31 19:12:25;;;;;;;57.67;10.33;;;;;;;-0.93;100.00;95501.53;10492605;28;20187;-64
2022/01/31 19:17:27;;;;;;;125.63;16.57;;;;;;;-1.00;100.00;95509.84;10493464;28;20235;-65
2022/01/31 19:22:27;;;;;;;111.93;15.03;;;;;;;-1.04;100.00;95522.09;10493064;28;20672;-64
2022/01/31 19:27:28;;;;;;;67.67;15.70;;;;;;;-1.01;100.00;95529.59;10493311;28;20222;-65
2022/01/31 19:32:30;;;;;;;66.23;13.83;;;;;;;-1.00;100.00;95528.63;10488805;28;20190;-65
2022/01/31 19:37:30;;;;;;;67.37;14.00;;;;;;;-1.00;100.00;95536.34;10468825;28;20682;-63
2022/01/31 19:47:49;;;;;;;76.90;14.47;;;;;;;-0.95;100.00;95562.53;10489345;28;20223;-64
2022/01/31 19:52:50;;;;;;;73.40;14.43;;;;;;;-0.96;100.00;95566.03;10485258;28;20184;-64
2022/01/31 19:57:50;;;;;;;58.63;14.57;;;;;;;-0.93;100.00;95570.94;10450930;28;20324;-64
2022/01/31 20:02:50;;;;;;;70.07;12.87;;;;;;;-0.93;100.00;95576.09;10450800;28;20184;-64
2022/01/31 20:07:51;;;;;;;184.57;17.13;;;;;;;-0.96;100.00;95593.50;10450535;28;20306;-63
2022/01/31 20:12:52;;;;;;;93.30;16.30;;;;;;;-0.87;100.00;95600.53;10450748;28;20205;-64
2022/01/31 20:17:52;;;;;;;166.30;16.83;;;;;;;-0.85;100.00;95613.28;10450492;28;20235;-64
2022/01/31 20:22:52;;;;;;;178.77;17.37;;;;;;;-0.90;100.00;95624.72;10454537;28;20726;-62
2022/01/31 20:27:53;;;;;;;127.50;17.63;;;;;;;-0.91;100.00;95625.63;10458376;28;20647;-64
2022/01/31 20:32:53;;;;;;;191.73;18.50;;;;;;;-0.88;100.00;95640.03;10458389;28;20192;-64
2022/01/31 20:38:01;;;;;;;251.50;20.33;;;;;;;-0.92;100.00;95659.16;10457864;28;20277;-64
2022/01/31 20:43:01;;;;;;;172.93;21.33;;;;;;;-0.89;100.00;95666.66;10457948;28;20207;-64
2022/01/31 20:48:03;;;;;;;146.43;16.47;;;;;;;-0.82;100.00;95683.28;10457592;28;20721;-64
2022/01/31 20:53:03;;;;;;;38.70;14.63;;;;;;;-0.89;100.00;95694.94;10457534;28;20207;-63
2022/01/31 20:58:04;;;;;;;21.47;11.33;;;;;;;-0.94;100.00;95697.03;10457267;28;20210;-62
2022/01/31 21:03:05;;;;;;;26.93;11.97;;;;;;;-0.91;100.00;95707.09;10456838;28;20209;-64
2022/01/31 21:08:06;;;;;;;61.53;16.50;;;;;;;-0.95;100.00;95713.38;10456774;28;20224;-63
2022/01/31 21:13:09;;;;;;;45.57;15.40;;;;;;;-0.90;100.00;95735.25;10456375;28;20254;-63
2022/01/31 21:18:09;;;;;;;50.47;17.83;;;;;;;-1.00;100.00;95733.47;10456447;28;20307;-64
2022/01/31 21:23:10;;;;;;;51.90;17.93;;;;;;;-0.99;100.00;95737.69;10455289;28;20176;-63
2022/01/31 21:28:14;;;;;;;53.33;19.87;;;;;;;-0.98;100.00;95750.44;10453876;28;20227;-64
2022/01/31 21:33:22;;;;;;;53.47;19.57;;;;;;;-1.02;100.00;95751.56;10455284;28;20195;-64
2022/01/31 21:38:23;;;;;;;53.67;19.57;;;;;;;-0.96;100.00;95758.03;10456103;28;20654;-63
2022/01/31 21:43:23;;;;;;;56.17;19.70;;;;;;;-0.98;100.00;95765.84;10455781;28;20294;-64
2022/01/31 21:48:24;;;;;;;53.00;19.13;;;;;;;-1.01;100.00;95760.09;10455543;28;20216;-62
2022/01/31 21:53:28;;;;;;;63.90;19.17;;;;;;;-0.97;100.00;95769.22;10456009;28;20188;-63
2022/01/31 21:58:28;;;;;;;61.40;18.67;;;;;;;-1.00;100.00;95779.72;10455700;28;20244;-63
2022/01/31 22:03:28;;;;;;;58.90;19.03;;;;;;;-1.02;100.00;95777.25;10455126;28;20275;-64
2022/01/31 22:08:39;;;;;;;70.37;17.83;;;;;;;-1.07;100.00;95781.91;10454951;28;20766;-63
2022/01/31 22:13:39;;;;;;;51.87;18.07;;;;;;;-1.10;100.00;95782.94;10454959;28;20192;-64
2022/01/31 22:18:40;;;;;;;64.13;19.50;;;;;;;-1.12;100.00;95797.66;10475802;28;20223;-63
2022/01/31 22:23:42;;;;;;;72.57;20.30;;;;;;;-1.13;100.00;95798.59;10496086;28;20298;-64
2022/01/31 22:28:42;;;;;;;70.43;19.77;;;;;;;-1.03;100.00;95809.03;10496031;28;20701;-64
2022/01/31 22:33:49;;;;;;;63.63;20.03;;;;;;;-1.06;100.00;95814.38;10496117;28;20197;-64
2022/01/31 22:38:50;;;;;;;63.17;19.73;;;;;;;-1.10;100.00;95829.22;10495614;28;20246;-64
2022/01/31 22:43:50;;;;;;;76.37;19.07;;;;;;;-1.03;100.00;95836.50;10495414;28;20318;-63
2022/01/31 22:48:50;;;;;;;73.63;17.63;;;;;;;-1.10;100.00;95852.34;10495217;28;20208;-63
2022/01/31 22:53:51;;;;;;;50.63;16.93;;;;;;;-1.11;100.00;95860.16;10495200;28;20194;-63
2022/01/31 22:58:52;;;;;;;75.87;17.90;;;;;;;-1.14;100.00;95861.19;10495107;28;20215;-64
2022/01/31 23:03:52;;;;;;;75.77;16.30;;;;;;;-1.16;100.00;95882.78;10494230;28;20576;-63
2022/01/31 23:08:52;;;;;;;57.77;17.67;;;;;;;-1.14;100.00;95901.50;10494828;28;20211;-64
2022/01/31 23:13:58;;;;;;;64.03;17.37;;;;;;;-1.16;100.00;95906.72;10494387;28;20195;-63
2022/01/31 23:19:18;;;;;;;79.80;19.43;;;;;;;-1.13;100.00;95916.00;10494649;28;20587;-63
2022/01/31 23:56:06;;;;;;;63.73;14.10;;;;;;;-1.20;100.00;95954.09;10494704;28;20191;-63
